Time;durP1;ratioP1;P1;durP2;ratioP2;P2;SDS_P1;SDS_P2;PMS_P1;PMS_P2;Temp;Humidity;BMP_temperature;BMP_pressure;BME280_temperature;BME280_humidity;BME280_pressure;Samples;Min_cycle;Max_cycle;Signal;HPM_P1;HPM_P2
2023/12/31 00:00:59;;;;;;;5.10;1.40;;;;;;;17.63;30.49;100136.07;105806;1252;63750;-48
2023/12/31 00:03:27;;;;;;;2.60;1.00;;;;;;;17.77;30.35;100135.88;105323;1257;61449;-48
2023/12/31 00:05:55;;;;;;;5.00;1.40;;;;;;;17.90;30.27;100136.46;105434;1253;62451;-48
2023/12/31 00:08:23;;;;;;;3.40;0.90;;;;;;;17.96;30.06;100135.16;105349;1253;60512;-47
2023/12/31 00:10:50;;;;;;;4.80;1.80;;;;;;;18.00;30.02;100137.60;106119;1253;60623;-47
2023/12/31 00:13:18;;;;;;;3.10;0.70;;;;;;;18.01;29.84;100139.52;105293;1253;64847;-47
2023/12/31 00:15:46;;;;;;;5.70;1.10;;;;;;;18.03;29.78;100140.44;105422;1253;61348;-48
2023/12/31 00:18:13;;;;;;;9.20;3.80;;;;;;;18.01;29.94;100141.48;105329;1255;62512;-47
2023/12/31 00:20:41;;;;;;;5.20;1.30;;;;;;;17.99;29.96;100146.73;105591;1254;60512;-48
2023/12/31 00:23:11;;;;;;;6.80;2.80;;;;;;;17.94;29.86;100150.48;105410;1257;60418;-48
2023/12/31 00:25:39;;;;;;;3.90;1.10;;;;;;;17.90;30.03;100147.62;105637;1253;64967;-47
2023/12/31 00:28:07;;;;;;;5.70;2.20;;;;;;;17.82;30.07;100155.70;105609;1253;61783;-46
2023/12/31 00:30:35;;;;;;;3.90;0.80;;;;;;;17.74;30.22;100149.61;105329;1254;62519;-48
2023/12/31 00:33:03;;;;;;;3.10;0.80;;;;;;;17.65;30.37;100148.23;105839;1253;60552;-47
2023/12/31 00:35:31;;;;;;;5.20;1.10;;;;;;;17.62;30.36;100135.52;105960;1253;60527;-47
2023/12/31 00:37:59;;;;;;;4.20;1.70;;;;;;;17.57;30.56;100134.77;105823;1253;64973;-50
2023/12/31 00:40:29;;;;;;;2.60;0.70;;;;;;;17.48;30.54;100136.71;105326;1253;61372;-49
2023/12/31 00:42:57;;;;;;;5.20;1.90;;;;;;;17.47;30.74;100139.84;105906;1253;63678;-47
2023/12/31 00:45:24;;;;;;;1.30;0.40;;;;;;;17.44;30.69;100146.54;106115;1253;60579;-47
2023/12/31 00:47:52;;;;;;;3.20;1.00;;;;;;;17.43;30.63;100143.65;105410;1257;60501;-47
2023/12/31 00:50:20;;;;;;;2.50;0.90;;;;;;;17.47;30.80;100139.84;105291;1254;63699;-48
2023/12/31 00:52:47;;;;;;;4.50;1.80;;;;;;;17.52;30.69;100136.27;105235;1259;61751;-48
2023/12/31 00:55:15;;;;;;;3.00;0.60;;;;;;;17.53;30.71;100137.58;105128;1253;64309;-49
2023/12/31 00:57:43;;;;;;;3.50;1.40;;;;;;;17.52;30.78;100141.38;105466;1253;60666;-47
2023/12/31 01:00:11;;;;;;;2.30;0.60;;;;;;;17.50;30.77;100142.16;105609;1257;60445;-48
2023/12/31 01:02:39;;;;;;;2.90;0.80;;;;;;;17.44;30.71;100144.31;105646;1253;64960;-48
2023/12/31 01:05:07;;;;;;;3.10;1.10;;;;;;;17.36;30.78;100150.08;105133;1253;61301;-48
2023/12/31 01:07:34;;;;;;;4.80;2.00;;;;;;;17.35;30.83;100150.77;105411;1253;62544;-48
2023/12/31 01:10:03;;;;;;;2.50;0.90;;;;;;;17.39;30.73;100153.48;108883;1253;305012;-48
2023/12/31 01:14:04;;;;;;;1.80;0.60;;;;;;;15.43;34.11;100146.39;102231;1292;601235;-48
2023/12/31 01:16:32;;;;;;;6.00;2.20;;;;;;;17.01;31.42;100143.59;108369;1267;57322;-49
2023/12/31 01:18:59;;;;;;;3.70;0.90;;;;;;;17.24;31.05;100144.70;108342;1266;57390;-49
2023/12/31 01:21:27;;;;;;;3.00;0.60;;;;;;;17.26;31.07;100147.31;108325;1266;63403;-48
2023/12/31 01:23:55;;;;;;;5.80;2.20;;;;;;;17.27;31.13;100142.39;109053;1256;71421;-48
2023/12/31 01:26:24;;;;;;;2.80;0.70;;;;;;;17.37;31.00;100139.71;108203;1256;62528;-48
2023/12/31 01:28:51;;;;;;;4.30;1.50;;;;;;;17.44;30.96;100140.13;105155;1256;376901;-48
2023/12/31 01:31:19;;;;;;;5.10;2.40;;;;;;;17.56;30.89;100136.50;105253;1253;59443;-47
2023/12/31 01:33:47;;;;;;;4.50;2.00;;;;;;;17.57;30.79;100139.45;105423;1253;62010;-47
2023/12/31 01:36:15;;;;;;;6.70;2.90;;;;;;;17.58;30.83;100139.42;105268;1257;60096;-47
2023/12/31 01:38:43;;;;;;;7.40;3.20;;;;;;;17.51;30.90;100148.94;105518;1253;63807;-48
2023/12/31 01:41:11;;;;;;;5.70;1.10;;;;;;;17.54;30.95;100146.12;105359;1256;59769;-47
2023/12/31 01:43:39;;;;;;;8.20;4.00;;;;;;;17.57;30.85;100152.00;105562;1253;59721;-47
2023/12/31 01:46:08;;;;;;;5.60;2.10;;;;;;;17.56;30.92;100158.46;105659;1253;62886;-47
2023/12/31 01:48:36;;;;;;;8.70;4.10;;;;;;;17.57;30.93;100157.81;105848;1257;60074;-47
2023/12/31 01:51:04;;;;;;;12.80;3.40;;;;;;;17.58;31.02;100158.15;105209;1256;64173;-47
2023/12/31 01:53:31;;;;;;;5.10;1.60;;;;;;;17.54;31.04;100162.98;105591;1256;61310;-48
2023/12/31 01:55:59;;;;;;;8.40;3.40;;;;;;;17.50;31.03;100158.48;105245;1253;59555;-48
2023/12/31 01:58:27;;;;;;;4.90;1.20;;;;;;;17.50;31.17;100152.80;105316;1253;64210;-47
2023/12/31 02:00:54;;;;;;;8.40;3.10;;;;;;;17.52;31.09;100148.17;105842;1254;61941;-48
2023/12/31 02:03:22;;;;;;;3.90;1.30;;;;;;;17.52;31.13;100148.63;105442;1253;63725;-48
2023/12/31 02:05:51;;;;;;;8.30;3.20;;;;;;;17.51;31.13;100149.30;105314;1253;59818;-48
2023/12/31 02:08:19;;;;;;;4.10;0.90;;;;;;;17.52;31.14;100152.19;105556;1257;59634;-47
2023/12/31 02:10:46;;;;;;;3.40;0.90;;;;;;;17.56;31.09;100148.01;105460;1259;64593;-47
2023/12/31 02:13:15;;;;;;;5.90;2.70;;;;;;;17.62;31.00;100144.73;105501;1257;61457;-47
2023/12/31 02:15:42;;;;;;;3.50;0.80;;;;;;;17.63;30.98;100144.08;105373;1255;63681;-48
2023/12/31 02:18:10;;;;;;;6.90;2.50;;;;;;;17.59;30.96;100148.16;105693;1253;59817;-49
2023/12/31 02:20:38;;;;;;;5.90;1.30;;;;;;;17.52;31.23;100149.72;105650;1257;59520;-49
2023/12/31 02:23:06;;;;;;;3.40;0.80;;;;;;;17.45;31.18;100156.90;105657;1258;64119;-48
2023/12/31 02:25:34;;;;;;;5.70;2.30;;;;;;;17.39;31.33;100161.27;105633;1253;62114;-47
2023/12/31 02:28:02;;;;;;;3.20;0.90;;;;;;;17.34;31.57;100162.91;105683;1254;63802;-48
2023/12/31 02:30:30;;;;;;;4.10;1.10;;;;;;;17.26;31.59;100170.38;105776;1258;59715;-48
2023/12/31 02:32:57;;;;;;;2.40;0.60;;;;;;;17.20;31.79;100168.23;105848;1253;60927;-47
2023/12/31 02:35:25;;;;;;;7.10;2.90;;;;;;;17.17;31.67;100165.84;105310;1253;64081;-47
2023/12/31 02:37:53;;;;;;;4.30;1.60;;;;;;;17.14;31.64;100167.80;105405;1253;61363;-47
2023/12/31 02:40:21;;;;;;;4.00;1.10;;;;;;;17.10;31.75;100168.60;105371;1253;64244;-46
2023/12/31 02:42:49;;;;;;;5.20;2.30;;;;;;;17.03;31.84;100170.40;105295;1256;59737;-47
2023/12/31 02:45:17;;;;;;;2.90;0.80;;;;;;;16.97;32.04;100164.72;105439;1258;59682;-48
2023/12/31 02:47:46;;;;;;;4.50;1.00;;;;;;;16.97;32.12;100172.91;105364;1258;64652;-48
2023/12/31 02:50:14;;;;;;;6.40;2.50;;;;;;;17.02;31.87;100176.10;105564;1253;61343;-48
2023/12/31 02:52:42;;;;;;;3.10;0.80;;;;;;;17.06;31.89;100185.33;105380;1253;63753;-47
2023/12/31 02:55:09;;;;;;;5.30;2.30;;;;;;;17.06;31.90;100192.06;105582;1259;59526;-47
2023/12/31 02:57:37;;;;;;;4.00;1.00;;;;;;;17.02;31.96;100194.61;105402;1258;59724;-48
2023/12/31 03:00:05;;;;;;;7.00;1.20;;;;;;;16.99;32.04;100192.71;105389;1257;64138;-47
2023/12/31 03:02:33;;;;;;;5.20;1.90;;;;;;;16.96;32.06;100192.73;105794;1253;61413;-47
2023/12/31 03:05:01;;;;;;;8.00;3.70;;;;;;;16.93;31.99;100193.56;105841;1258;63675;-47
2023/12/31 03:07:29;;;;;;;4.20;1.30;;;;;;;16.88;32.11;100199.34;105371;1253;59646;-46
2023/12/31 03:09:57;;;;;;;5.40;1.20;;;;;;;16.83;32.31;100204.38;105392;1253;59759;-47
2023/12/31 03:12:24;;;;;;;8.30;3.10;;;;;;;16.74;32.38;100202.80;105239;1258;64111;-46
2023/12/31 03:14:52;;;;;;;4.50;1.00;;;;;;;16.66;32.46;100202.05;105307;1253;61391;-48
2023/12/31 03:17:19;;;;;;;3.50;1.40;;;;;;;16.65;32.47;100202.19;105348;1253;62490;-46
2023/12/31 03:19:47;;;;;;;3.60;0.80;;;;;;;16.69;32.60;100205.98;105415;1253;59661;-49
2023/12/31 03:22:15;;;;;;;3.40;0.90;;;;;;;16.70;32.54;100205.67;105307;1258;59642;-47
2023/12/31 03:25:00;;;;;;;5.10;1.10;;;;;;;16.67;32.35;100204.23;105308;1258;64126;-49
2023/12/31 03:27:27;;;;;;;4.30;1.00;;;;;;;16.64;32.47;100204.65;105308;1253;61333;-47
2023/12/31 03:29:55;;;;;;;5.50;2.60;;;;;;;16.63;32.41;100207.52;105414;1253;62459;-46
2023/12/31 03:32:23;;;;;;;5.10;1.60;;;;;;;16.61;32.50;100211.70;106066;1253;59731;-46
2023/12/31 03:34:51;;;;;;;5.50;1.50;;;;;;;16.54;32.66;100216.30;105439;1253;59643;-48
2023/12/31 03:37:18;;;;;;;5.60;2.80;;;;;;;16.47;32.77;100222.67;105426;1253;64198;-46
2023/12/31 03:39:46;;;;;;;2.30;0.90;;;;;;;16.39;32.79;100229.08;105364;1253;61489;-47
2023/12/31 03:42:13;;;;;;;4.40;1.30;;;;;;;16.32;32.75;100229.27;105255;1256;63728;-48
2023/12/31 03:44:41;;;;;;;4.60;1.90;;;;;;;16.27;32.83;100230.73;105348;1254;59702;-48
2023/12/31 03:47:09;;;;;;;5.00;1.70;;;;;;;16.24;32.95;100235.23;105216;1256;59552;-45
2023/12/31 03:49:36;;;;;;;4.10;1.50;;;;;;;16.22;32.98;100238.19;105277;1258;62855;-47
2023/12/31 03:52:05;;;;;;;5.00;1.40;;;;;;;16.25;33.03;100241.52;105750;1259;61616;-46
2023/12/31 03:54:32;;;;;;;3.10;0.80;;;;;;;16.30;32.93;100249.34;105875;1253;63916;-45
2023/12/31 03:57:00;;;;;;;3.10;1.00;;;;;;;16.31;32.94;100249.89;105286;1259;59678;-48
2023/12/31 03:59:27;;;;;;;4.70;1.00;;;;;;;16.33;32.83;100248.96;105416;1259;59671;-45
2023/12/31 04:01:58;;;;;;;3.80;1.20;;;;;;;16.31;32.89;100250.23;105206;1253;62886;-48
2023/12/31 04:04:26;;;;;;;5.70;1.80;;;;;;;16.30;32.89;100254.10;105347;1258;60213;-48
2023/12/31 04:06:53;;;;;;;7.90;2.70;;;;;;;16.29;32.92;100257.88;105906;1257;63735;-48
2023/12/31 04:09:21;;;;;;;3.80;1.30;;;;;;;16.26;32.87;100257.02;105347;1253;59751;-47
2023/12/31 04:11:49;;;;;;;5.00;1.40;;;;;;;16.26;32.95;100258.23;105386;1258;59676;-46
2023/12/31 04:14:16;;;;;;;5.20;1.60;;;;;;;16.26;33.12;100261.59;105266;1259;64153;-46
2023/12/31 04:16:44;;;;;;;5.50;1.20;;;;;;;16.28;33.13;100264.61;105362;1253;61832;-46
2023/12/31 04:19:14;;;;;;;8.00;3.40;;;;;;;16.29;33.03;100269.26;105430;1256;63807;-47
2023/12/31 04:21:42;;;;;;;3.10;1.40;;;;;;;16.28;33.04;100272.40;105374;1257;59734;-46
2023/12/31 04:24:10;;;;;;;2.80;1.10;;;;;;;16.33;33.11;100269.93;105475;1256;59552;-47
2023/12/31 04:26:42;;;;;;;3.40;1.30;;;;;;;16.41;32.91;100273.35;105270;1257;64070;-46
2023/12/31 04:29:10;;;;;;;7.40;3.60;;;;;;;16.49;32.87;100272.28;105656;1259;60228;-46
2023/12/31 04:31:46;;;;;;;6.40;1.10;;;;;;;16.51;32.74;100273.27;105573;1258;62511;-47
2023/12/31 04:34:15;;;;;;;4.30;1.20;;;;;;;16.50;32.83;100266.54;105223;1258;59586;-47
2023/12/31 04:36:44;;;;;;;6.40;1.50;;;;;;;16.50;32.98;100269.89;105141;1253;62262;-47
2023/12/31 04:39:12;;;;;;;4.70;1.20;;;;;;;16.53;32.95;100268.30;105635;1257;66122;-48
2023/12/31 04:41:39;;;;;;;5.40;1.30;;;;;;;16.53;32.89;100266.34;105692;1256;61439;-46
2023/12/31 04:44:07;;;;;;;6.00;1.80;;;;;;;16.50;32.90;100270.36;105266;1256;63705;-46
2023/12/31 04:46:34;;;;;;;4.90;1.30;;;;;;;16.50;32.92;100269.49;105188;1253;61875;-48
2023/12/31 04:49:02;;;;;;;4.70;1.40;;;;;;;16.52;32.95;100272.29;105443;1257;59629;-47
2023/12/31 04:51:30;;;;;;;5.40;1.40;;;;;;;16.54;32.85;100274.73;105672;1253;64096;-47
2023/12/31 04:53:58;;;;;;;9.10;3.10;;;;;;;16.62;32.67;100272.33;106013;1257;61303;-48
2023/12/31 04:56:27;;;;;;;5.90;2.30;;;;;;;16.63;32.72;100278.20;105341;1258;62594;-46
2023/12/31 04:58:56;;;;;;;4.00;1.40;;;;;;;16.63;32.82;100285.65;106072;1258;59740;-47
2023/12/31 05:01:26;;;;;;;5.60;1.50;;;;;;;16.61;32.72;100285.05;106161;1257;59581;-47
2023/12/31 05:03:53;;;;;;;4.10;1.60;;;;;;;16.54;32.72;100281.29;106125;1258;62890;-48
2023/12/31 05:06:21;;;;;;;6.30;3.10;;;;;;;16.47;32.99;100284.48;105177;1253;61897;-48
2023/12/31 05:08:49;;;;;;;6.90;2.10;;;;;;;16.42;33.05;100283.65;106163;1253;63748;-47
2023/12/31 05:11:17;;;;;;;7.20;2.20;;;;;;;16.37;33.02;100289.64;105411;1256;59799;-46
2023/12/31 05:13:44;;;;;;;4.00;1.40;;;;;;;16.33;33.16;100291.47;105385;1253;59993;-47
2023/12/31 05:16:15;;;;;;;4.90;1.00;;;;;;;16.25;33.31;100296.73;105451;1257;64123;-47
2023/12/31 05:18:45;;;;;;;6.30;2.40;;;;;;;16.22;33.42;100296.91;105541;1253;61378;-50
2023/12/31 05:21:13;;;;;;;7.60;3.50;;;;;;;16.27;33.49;100291.25;105446;1259;63688;-47
2023/12/31 05:23:41;;;;;;;4.60;1.10;;;;;;;16.29;33.41;100296.33;105327;1258;60559;-48
2023/12/31 05:26:08;;;;;;;4.40;1.80;;;;;;;16.31;33.33;100294.85;105214;1254;60933;-48
2023/12/31 05:28:37;;;;;;;4.40;1.60;;;;;;;16.30;33.34;100296.54;105263;1259;64917;-48
2023/12/31 05:31:04;;;;;;;7.40;3.20;;;;;;;16.27;33.41;100298.46;105193;1258;60570;-48
2023/12/31 05:33:32;;;;;;;3.30;1.10;;;;;;;16.24;33.47;100301.30;105695;1259;64225;-47
2023/12/31 05:35:59;;;;;;;5.20;1.50;;;;;;;16.22;33.42;100306.27;105738;1254;60438;-48
2023/12/31 05:38:27;;;;;;;6.40;2.10;;;;;;;16.17;33.63;100306.96;105284;1254;60458;-48
2023/12/31 05:40:55;;;;;;;5.20;1.70;;;;;;;16.12;33.73;100307.30;105197;1259;65560;-48
2023/12/31 05:43:22;;;;;;;4.50;1.60;;;;;;;16.10;33.80;100311.27;105314;1257;61718;-49
2023/12/31 05:45:50;;;;;;;6.70;3.40;;;;;;;16.18;33.59;100310.73;105380;1254;63700;-48
2023/12/31 05:48:18;;;;;;;3.80;1.30;;;;;;;16.27;33.58;100316.71;105318;1259;60883;-46
2023/12/31 05:50:46;;;;;;;4.70;1.70;;;;;;;16.30;33.42;100318.18;105166;1260;60487;-47
2023/12/31 05:53:14;;;;;;;5.70;1.80;;;;;;;16.30;33.52;100319.01;105362;1258;64919;-47
2023/12/31 05:55:41;;;;;;;5.20;2.10;;;;;;;16.33;33.52;100321.21;105340;1259;61429;-48
2023/12/31 05:58:09;;;;;;;5.30;1.60;;;;;;;16.35;33.47;100320.11;105535;1259;63286;-47
2023/12/31 06:00:37;;;;;;;4.10;1.60;;;;;;;16.36;33.54;100322.00;105683;1253;60450;-48
2023/12/31 06:03:05;;;;;;;7.10;2.60;;;;;;;16.36;33.53;100322.70;105325;1260;60512;-47
2023/12/31 06:05:33;;;;;;;6.80;2.50;;;;;;;16.34;33.49;100322.04;105408;1257;63653;-48
2023/12/31 06:08:01;;;;;;;6.20;1.20;;;;;;;16.36;33.54;100318.72;107446;1257;60805;-47
2023/12/31 06:10:28;;;;;;;6.80;3.80;;;;;;;16.46;33.24;100317.40;105312;1253;63729;-47
2023/12/31 06:12:56;;;;;;;5.30;1.50;;;;;;;16.57;33.30;100316.11;105271;1259;60582;-47
2023/12/31 06:15:23;;;;;;;4.90;1.40;;;;;;;16.60;33.28;100313.92;105242;1259;60476;-47
2023/12/31 06:17:51;;;;;;;3.40;1.10;;;;;;;16.60;33.19;100320.66;105872;1253;64922;-47
2023/12/31 06:20:19;;;;;;;6.20;1.80;;;;;;;16.61;33.26;100322.17;105276;1254;61367;-47
2023/12/31 06:22:47;;;;;;;3.80;1.10;;;;;;;16.61;33.10;100328.70;105422;1258;63738;-46
2023/12/31 06:25:14;;;;;;;4.20;1.50;;;;;;;16.61;33.23;100330.13;105270;1255;60480;-47
2023/12/31 06:27:42;;;;;;;8.10;3.80;;;;;;;16.57;33.12;100326.17;105227;1259;61618;-48
2023/12/31 06:30:10;;;;;;;3.60;1.30;;;;;;;16.53;33.28;100319.23;105123;1259;64893;-47
2023/12/31 06:32:38;;;;;;;6.30;2.10;;;;;;;16.59;33.17;100321.16;105562;1254;61390;-46
2023/12/31 06:35:07;;;;;;;6.80;2.00;;;;;;;16.66;33.13;100325.16;105591;1254;62505;-48
2023/12/31 06:37:34;;;;;;;7.80;2.20;;;;;;;16.74;33.07;100327.20;105272;1257;60484;-48
2023/12/31 06:40:03;;;;;;;6.80;2.10;;;;;;;16.79;32.95;100327.30;105239;1254;60347;-47
2023/12/31 06:42:30;;;;;;;25.00;14.20;;;;;;;16.82;33.01;100331.02;105696;1258;64881;-48
2023/12/31 06:44:58;;;;;;;12.30;4.80;;;;;;;16.83;32.99;100336.83;105263;1259;60959;-47
2023/12/31 06:47:25;;;;;;;14.30;6.10;;;;;;;16.81;32.85;100340.09;105217;1266;62486;-47
2023/12/31 06:49:53;;;;;;;10.50;3.90;;;;;;;16.80;32.92;100344.21;105253;1257;60579;-48
2023/12/31 06:52:21;;;;;;;12.20;4.60;;;;;;;16.78;33.08;100342.08;105299;1257;62054;-47
2023/12/31 06:54:48;;;;;;;39.00;11.70;;;;;;;16.76;33.09;100346.39;105445;1260;63630;-48
2023/12/31 06:57:16;;;;;;;14.70;5.60;;;;;;;16.75;33.14;100348.46;105279;1257;61376;-48
2023/12/31 06:59:44;;;;;;;22.00;9.20;;;;;;;16.75;33.16;100343.73;105140;1260;62498;-47
2023/12/31 07:02:12;;;;;;;21.20;10.60;;;;;;;16.73;33.07;100339.77;105290;1258;60562;-47
2023/12/31 07:04:39;;;;;;;16.60;4.00;;;;;;;16.74;33.06;100342.77;105595;1252;60508;-48
2023/12/31 07:07:07;;;;;;;16.60;5.50;;;;;;;16.78;32.94;100346.93;105377;1259;65051;-48
2023/12/31 07:09:35;;;;;;;12.30;3.70;;;;;;;16.86;32.87;100353.55;105296;1259;61399;-48
2023/12/31 07:12:03;;;;;;;12.10;5.00;;;;;;;16.99;32.75;100362.10;105154;1258;63780;-48
2023/12/31 07:14:30;;;;;;;12.40;5.40;;;;;;;17.08;32.66;100362.67;109253;1253;58431;-47
2023/12/31 07:16:58;;;;;;;41.20;19.10;;;;;;;17.15;32.62;100363.00;109247;1257;58326;-47
2023/12/31 07:19:25;;;;;;;24.50;9.90;;;;;;;17.23;32.39;100358.19;106330;1258;63754;-46
2023/12/31 07:21:53;;;;;;;21.00;6.30;;;;;;;17.29;32.47;100363.30;105159;1257;61269;-48
2023/12/31 07:24:21;;;;;;;17.80;10.10;;;;;;;17.31;32.27;100367.12;109284;1255;62424;-46
2023/12/31 07:26:49;;;;;;;10.80;4.70;;;;;;;17.32;32.33;100363.30;106154;1257;59339;-52
2023/12/31 07:29:16;;;;;;;23.00;13.80;;;;;;;17.33;32.33;100367.98;105411;1255;60340;-48
2023/12/31 07:31:45;;;;;;;13.80;5.90;;;;;;;17.34;32.30;100371.27;105437;1253;65507;-48
2023/12/31 07:34:15;;;;;;;11.60;5.50;;;;;;;17.37;32.16;100375.42;106130;1260;61351;-47
2023/12/31 07:36:43;;;;;;;29.40;16.00;;;;;;;17.39;32.26;100377.42;105348;1257;63670;-47
2023/12/31 07:39:10;;;;;;;20.70;7.10;;;;;;;17.42;32.27;100379.08;105528;1255;60655;-46
2023/12/31 07:41:38;;;;;;;14.50;5.30;;;;;;;17.49;32.05;100374.34;105765;1255;60451;-46
2023/12/31 07:44:06;;;;;;;19.80;7.70;;;;;;;17.56;31.87;100375.37;105374;1258;64921;-48
2023/12/31 07:46:33;;;;;;;22.00;6.60;;;;;;;17.59;31.88;100373.50;105731;1259;60933;-47
2023/12/31 07:49:01;;;;;;;20.90;11.80;;;;;;;17.61;31.75;100371.97;105319;1258;63755;-47
2023/12/31 07:51:29;;;;;;;10.90;3.60;;;;;;;17.58;31.78;100378.22;105219;1254;60550;-50
2023/12/31 07:53:57;;;;;;;10.90;4.70;;;;;;;17.56;31.75;100381.42;105906;1258;60483;-48
2023/12/31 07:56:24;;;;;;;4.80;1.50;;;;;;;17.52;31.66;100392.03;105852;1259;64984;-48
2023/12/31 07:58:52;;;;;;;4.80;1.20;;;;;;;17.46;31.85;100390.64;105322;1258;61715;-50
2023/12/31 08:01:20;;;;;;;6.10;1.80;;;;;;;17.43;31.86;100392.08;105394;1257;62505;-46
2023/12/31 08:03:49;;;;;;;7.70;2.60;;;;;;;17.43;31.92;100394.41;105287;1259;60451;-48
2023/12/31 08:06:16;;;;;;;10.60;4.10;;;;;;;17.42;31.86;100396.23;105335;1254;60396;-48
2023/12/31 08:08:44;;;;;;;5.70;2.10;;;;;;;17.39;31.93;100398.00;105380;1254;64950;-47
2023/12/31 08:11:12;;;;;;;4.90;1.50;;;;;;;17.45;31.91;100404.64;105485;1254;61337;-47
2023/12/31 08:13:41;;;;;;;11.20;3.90;;;;;;;17.58;31.90;100399.98;105846;1254;63748;-47
2023/12/31 08:16:08;;;;;;;10.30;4.00;;;;;;;17.71;31.74;100407.08;105378;1257;61764;-47
2023/12/31 08:18:36;;;;;;;4.50;1.40;;;;;;;17.79;31.63;100411.71;105327;1258;60775;-46
2023/12/31 08:21:04;;;;;;;7.30;2.40;;;;;;;17.80;31.23;100410.69;105272;1254;65467;-47
2023/12/31 08:23:32;;;;;;;9.90;2.30;;;;;;;17.79;31.30;100408.13;105377;1257;62278;-47
2023/12/31 08:26:00;;;;;;;8.30;3.70;;;;;;;17.76;31.29;100415.08;105816;1254;63738;-47
2023/12/31 08:28:28;;;;;;;6.10;1.60;;;;;;;17.71;31.26;100422.39;105328;1260;60446;-47
2023/12/31 08:30:55;;;;;;;11.30;4.30;;;;;;;17.66;31.33;100423.95;105976;1257;60351;-48
2023/12/31 08:33:23;;;;;;;6.80;1.70;;;;;;;17.61;31.46;100413.91;105987;1258;65471;-47
2023/12/31 08:35:51;;;;;;;6.30;1.70;;;;;;;17.63;31.39;100411.02;105394;1259;61403;-48
2023/12/31 08:38:18;;;;;;;7.80;4.10;;;;;;;17.65;31.40;100412.34;105301;1254;72455;-50
2023/12/31 08:40:46;;;;;;;3.90;1.10;;;;;;;17.69;31.50;100410.50;105347;1258;60425;-48
2023/12/31 08:43:15;;;;;;;5.80;2.00;;;;;;;17.82;31.26;100414.05;105421;1257;60918;-48
2023/12/31 08:45:44;;;;;;;8.90;3.80;;;;;;;17.97;31.00;100411.94;105489;1254;65097;-48
2023/12/31 08:48:12;;;;;;;4.60;1.10;;;;;;;17.98;30.74;100419.56;105369;1259;60454;-49
2023/12/31 08:50:40;;;;;;;5.30;1.80;;;;;;;18.01;30.88;100412.67;105315;1258;71790;-47
2023/12/31 08:53:07;;;;;;;8.80;4.70;;;;;;;18.12;30.60;100414.50;105375;1254;60489;-47
2023/12/31 08:55:35;;;;;;;6.20;1.30;;;;;;;18.15;30.69;100408.66;105663;1253;60344;-47
2023/12/31 08:58:03;;;;;;;7.50;3.70;;;;;;;18.18;30.75;100407.32;105251;1266;63649;-48
2023/12/31 09:00:31;;;;;;;7.20;1.80;;;;;;;18.15;30.51;100411.82;105813;1257;61928;-48
2023/12/31 09:02:59;;;;;;;11.00;3.90;;;;;;;18.04;30.64;100421.41;105839;1254;64380;-47
2023/12/31 09:05:26;;;;;;;5.00;1.60;;;;;;;18.06;30.71;100410.79;105887;1257;60529;-47
2023/12/31 09:07:54;;;;;;;8.10;4.00;;;;;;;18.09;30.61;100410.91;105329;1257;60688;-46
2023/12/31 09:10:22;;;;;;;6.30;1.60;;;;;;;18.16;30.61;100402.66;105294;1263;64920;-45
2023/12/31 09:12:50;;;;;;;7.00;3.40;;;;;;;18.26;30.61;100397.85;105286;1257;62446;-46
2023/12/31 09:15:17;;;;;;;8.30;4.80;;;;;;;18.33;30.34;100393.52;105500;1255;63809;-45
2023/12/31 09:17:45;;;;;;;7.30;2.60;;;;;;;18.40;30.09;100384.63;105338;1253;60609;-46
2023/12/31 09:20:13;;;;;;;7.90;3.40;;;;;;;18.46;29.92;100398.14;105268;1254;60530;-47
2023/12/31 09:22:41;;;;;;;5.40;2.00;;;;;;;18.50;29.55;100400.66;105391;1260;64954;-47
2023/12/31 09:25:09;;;;;;;9.30;3.90;;;;;;;18.59;29.76;100392.71;105628;1258;61479;-47
2023/12/31 09:27:36;;;;;;;8.70;3.60;;;;;;;18.65;29.51;100396.11;105356;1258;63798;-49
2023/12/31 09:30:05;;;;;;;10.50;3.90;;;;;;;18.65;29.49;100393.08;105344;1254;60563;-45
2023/12/31 09:32:33;;;;;;;5.10;1.70;;;;;;;18.65;29.66;100389.19;105775;1254;60543;-48
2023/12/31 09:35:00;;;;;;;8.70;4.00;;;;;;;18.68;29.59;100395.50;105293;1254;65477;-47
2023/12/31 09:37:29;;;;;;;6.10;1.90;;;;;;;18.67;29.49;100397.83;105322;1254;61445;-47
2023/12/31 09:39:57;;;;;;;9.80;4.30;;;;;;;18.69;29.57;100400.50;105897;1254;63916;-49
2023/12/31 09:42:51;;;;;;;5.30;1.50;;;;;;;18.71;29.65;100400.04;106006;1254;60431;-47
2023/12/31 09:45:28;;;;;;;11.30;3.60;;;;;;;18.79;29.71;100400.10;105307;1254;60589;-47
2023/12/31 09:47:58;;;;;;;7.30;2.30;;;;;;;18.89;29.57;100403.73;105957;1254;65348;-47
2023/12/31 09:50:25;;;;;;;9.60;4.50;;;;;;;18.97;29.37;100400.55;105328;1255;62590;-47
2023/12/31 09:52:57;;;;;;;3.60;1.40;;;;;;;19.03;29.30;100405.71;105333;1258;63690;-46
2023/12/31 09:55:25;;;;;;;8.40;3.90;;;;;;;19.09;29.04;100409.22;106045;1256;60475;-48
2023/12/31 09:57:53;;;;;;;6.50;2.00;;;;;;;19.24;28.92;100398.08;105962;1254;60563;-47
2023/12/31 10:00:21;;;;;;;6.50;3.00;;;;;;;19.36;28.56;100394.34;105278;1259;64857;-48
2023/12/31 10:02:51;;;;;;;6.10;1.50;;;;;;;19.34;27.99;100395.48;105475;1257;61403;-48
2023/12/31 10:05:22;;;;;;;7.30;3.00;;;;;;;19.30;27.36;100387.76;105385;1257;75053;-49
2023/12/31 10:07:50;;;;;;;2.90;1.00;;;;;;;19.22;27.49;100396.88;105860;1254;60579;-48
2023/12/31 10:10:18;;;;;;;5.90;2.20;;;;;;;19.13;27.48;100405.73;105883;1254;60440;-50
2023/12/31 10:12:46;;;;;;;6.30;2.70;;;;;;;18.94;27.48;100405.23;105258;1254;64852;-47
2023/12/31 10:15:13;;;;;;;6.00;1.90;;;;;;;18.83;27.80;100403.33;105235;1254;61524;-46
2023/12/31 10:17:41;;;;;;;8.40;3.30;;;;;;;18.79;27.91;100397.77;105343;1254;63760;-46
2023/12/31 10:20:10;;;;;;;4.50;1.50;;;;;;;18.69;27.86;100400.63;105320;1254;60570;-47
2023/12/31 10:22:38;;;;;;;8.10;2.90;;;;;;;18.59;28.01;100396.61;105592;1254;60366;-46
2023/12/31 10:25:13;;;;;;;3.60;0.80;;;;;;;18.49;28.03;100399.44;105606;1257;65035;-47
2023/12/31 10:27:47;;;;;;;5.40;1.50;;;;;;;18.33;28.23;100392.29;105451;1257;60420;-48
2023/12/31 10:30:16;;;;;;;3.50;1.00;;;;;;;18.25;28.30;100393.21;105344;1254;63756;-47
2023/12/31 10:32:44;;;;;;;6.00;2.90;;;;;;;18.17;28.47;100393.08;105276;1254;60848;-47
2023/12/31 10:35:11;;;;;;;7.40;3.00;;;;;;;18.13;28.54;100390.13;105512;1252;60560;-48
2023/12/31 10:37:40;;;;;;;3.80;1.30;;;;;;;18.11;28.61;100382.35;105526;1254;63699;-47
2023/12/31 10:40:18;;;;;;;5.90;3.10;;;;;;;18.15;28.41;100382.52;105336;1258;60640;-49
2023/12/31 10:42:51;;;;;;;4.90;2.30;;;;;;;18.12;28.44;100380.77;105408;1254;62498;-47
2023/12/31 10:45:20;;;;;;;7.00;3.00;;;;;;;18.14;28.46;100383.27;105269;1258;60502;-47
2023/12/31 10:47:53;;;;;;;4.10;1.20;;;;;;;18.17;28.15;100379.30;105452;1254;60575;-49
2023/12/31 10:50:24;;;;;;;6.90;3.10;;;;;;;18.22;28.10;100382.27;105355;1257;67518;-48
2023/12/31 10:52:55;;;;;;;2.20;0.60;;;;;;;18.25;28.08;100380.27;105324;1257;60371;-48
2023/12/31 10:55:23;;;;;;;7.70;3.00;;;;;;;18.37;28.13;100373.20;105360;1253;63714;-51
2023/12/31 10:57:52;;;;;;;6.20;1.50;;;;;;;18.42;27.79;100373.52;105455;1257;60563;-48
2023/12/31 11:00:20;;;;;;;8.00;3.00;;;;;;;18.44;27.78;100368.92;105419;1254;60557;-48
2023/12/31 11:02:48;;;;;;;4.20;1.30;;;;;;;18.44;27.60;100375.95;105323;1254;73950;-49
2023/12/31 11:05:16;;;;;;;5.10;2.30;;;;;;;18.47;27.56;100377.19;105356;1254;61544;-49
2023/12/31 11:07:46;;;;;;;7.50;3.10;;;;;;;18.53;27.50;100375.60;105282;1255;63894;-48
2023/12/31 11:10:13;;;;;;;4.50;1.50;;;;;;;18.61;27.17;100374.89;105441;1257;60421;-48
2023/12/31 11:12:48;;;;;;;9.00;3.40;;;;;;;18.65;26.99;100382.50;105326;1254;60549;-48
2023/12/31 11:15:18;;;;;;;3.60;1.40;;;;;;;18.71;27.00;100380.40;105329;1254;64907;-48
2023/12/31 11:18:14;;;;;;;6.50;3.10;;;;;;;18.84;26.96;100370.67;106124;1255;60511;-48
2023/12/31 11:20:58;;;;;;;3.40;1.20;;;;;;;18.97;26.75;100367.04;105499;1258;64227;-49
2023/12/31 11:23:38;;;;;;;6.20;2.60;;;;;;;19.05;26.40;100366.45;105844;1254;61670;-47